Boo Sonier — WDG3281 — position and weather

sailwx.info

Track history (hours):
 
Tides and Currents Weather Stations Pressure Air Temp Water Temp Dewpoint Dewpoint Depression Visibility Wind Speed Wind Dir Waves Ship Positions

Boo Sonier

Owner: LeBeouf Bros. Towing, LLC, Houma, LA. More information available from US FCC via Universal Licensing System and Coast Guard Vessel Documentation Center.

Last reported at 2017-Jul-20 19:49 UTC. Time now 2017-Jul-21 00:53 UTC.
Position N 29°46' W 095°05'.

Length 21 m.

Type: Tug. MMSI: 367524420.

Date/timePositionNaut miles runAvg speedWind from/ knotsBaromVisibWave heightAir tempDewpointWater temp
2017-Jul-20 19:49N 29°46' W 095°05'1 0.1
2017-Jul-20 12:13N 29°47' W 095°05'0 0.0
2017-Jul-20 10:55N 29°47' W 095°05'0 0.0
2017-Jul-20 10:19N 29°47' W 095°05'0 0.0
2017-Jul-20 09:52N 29°47' W 095°05'0 0.0
2017-Jul-20 09:25N 29°47' W 095°05'0 0.0
2017-Jul-20 08:58N 29°47' W 095°05'0 0.0
2017-Jul-20 08:13N 29°47' W 095°05'0 0.0
2017-Jul-20 07:58N 29°47' W 095°05'0 0.0
2017-Jul-20 07:25N 29°47' W 095°05'0 0.0
2017-Jul-20 06:07N 29°47' W 095°05'0 0.0
2017-Jul-20 05:49N 29°47' W 095°05'0 0.0
2017-Jul-19 08:17N 29°47' W 095°05'0 0.0
2017-Jul-19 07:53N 29°47' W 095°05'0 0.0
2017-Jul-19 07:23N 29°47' W 095°05'0 0.0
2017-Jul-19 06:59N 29°47' W 095°05'0 0.0
2017-Jul-19 06:05N 29°47' W 095°05'0 0.0
2017-Jul-19 05:47N 29°47' W 095°05'0 0.0
2017-Jul-19 05:23N 29°47' W 095°05'0 0.0
2017-Jul-19 04:59N 29°47' W 095°05'0 0.0
2017-Jul-19 04:26N 29°47' W 095°05'0 0.0
2017-Jul-19 03:50N 29°47' W 095°05'0 0.0
2017-Jul-19 03:26N 29°47' W 095°05'0 0.0
2017-Jul-19 02:23N 29°47' W 095°05'0 0.0
2017-Jul-19 00:35N 29°47' W 095°05'0 0.0
2017-Jul-19 00:05N 29°47' W 095°05'0 0.0
2017-Jul-18 16:50N 29°47' W 095°05'0 0.0
2017-Jul-18 08:05N 29°47' W 095°05'0 0.0
2017-Jul-18 07:50N 29°47' W 095°05'0 0.0
2017-Jul-18 07:29N 29°47' W 095°05'0 0.0
2017-Jul-18 05:02N 29°47' W 095°05'0 0.0
2017-Jul-18 03:25N 29°47' W 095°05'0 0.0
2017-Jul-18 01:28N 29°47' W 095°05'1 0.1
2017-Jul-17 18:44N 29°46' W 095°05'1 0.6
2017-Jul-17 16:51N 29°46' W 095°06'1 1.7
2017-Jul-17 16:29N 29°46' W 095°05'1 0.0
2017-Jul-16 10:47N 29°46' W 095°05'2 4.5
2017-Jul-16 10:27N 29°45' W 095°06'2 5.2
2017-Jul-16 10:00N 29°44' W 095°09'2 4.8
2017-Jul-16 09:29N 29°45' W 095°11'1 0.1
2017-Jul-16 00:38N 29°44' W 095°12'0 0.0
2017-Jul-16 00:22N 29°44' W 095°12'0 0.0
2017-Jul-15 23:56N 29°44' W 095°12'0 0.1
2017-Jul-15 22:16N 29°44' W 095°12'0 0.6
2017-Jul-15 21:59N 29°44' W 095°12'0 0.0
2017-Jul-15 21:23N 29°44' W 095°12'0 0.0
2017-Jul-15 20:47N 29°44' W 095°12'0 0.0
2017-Jul-15 20:17N 29°44' W 095°12'0 0.0
2017-Jul-15 17:29N 29°44' W 095°12'0 0.0
2017-Jul-15 14:54N 29°44' W 095°12'0 0.0
2017-Jul-15 12:54N 29°44' W 095°12'0 0.1
2017-Jul-15 12:24N 29°44' W 095°12'0 0.0
2017-Jul-15 11:05N 29°44' W 095°12'0 0.0
2017-Jul-15 11:00N 29°44' W 095°12'0 0.0
2017-Jul-14 17:51N 29°44' W 095°12'2 5.5
2017-Jul-14 17:28N 29°45' W 095°10'3 5.2
2017-Jul-14 16:58N 29°44' W 095°07'2 5.3
2017-Jul-14 16:30N 29°46' W 095°05'3 5.6
2017-Jul-14 16:00N 29°44' W 095°02'2 3.5
2017-Jul-14 15:30N 29°42' W 095°02'1 2.0
2017-Jul-14 14:57N 29°42' W 095°03'0 0.1
2017-Jul-14 13:28N 29°42' W 095°03'0 0.0
2017-Jul-14 10:52N 29°42' W 095°03'0 0.0
2017-Jul-14 10:28N 29°42' W 095°03'0 0.0
2017-Jul-14 09:58N 29°42' W 095°03'0 0.0
2017-Jul-14 09:13N 29°42' W 095°03'0 0.0
2017-Jul-14 08:10N 29°42' W 095°03'0 0.0
2017-Jul-14 07:52N 29°42' W 095°03'0 0.0
2017-Jul-14 07:28N 29°42' W 095°03'0 0.0
2017-Jul-14 06:49N 29°42' W 095°03'0 0.0
2017-Jul-14 06:07N 29°42' W 095°03'0 0.0
2017-Jul-14 05:49N 29°42' W 095°03'0 0.0
2017-Jul-14 05:25N 29°42' W 095°03'0 0.0
2017-Jul-14 03:55N 29°42' W 095°03'0 0.0
2017-Jul-14 02:25N 29°42' W 095°03'0 0.0
2017-Jul-14 01:52N 29°42' W 095°03'0 0.0
2017-Jul-14 01:28N 29°42' W 095°03'0 0.0
2017-Jul-14 00:55N 29°42' W 095°03'0 0.0
2017-Jul-14 00:22N 29°42' W 095°03'0 0.0
2017-Jul-13 23:49N 29°42' W 095°03'0 0.0
2017-Jul-13 22:52N 29°42' W 095°03'0 0.0
2017-Jul-13 22:28N 29°42' W 095°03'0 0.0
2017-Jul-13 21:58N 29°42' W 095°03'0 0.0
2017-Jul-13 21:25N 29°42' W 095°03'0 0.0
2017-Jul-13 20:04N 29°42' W 095°03'0 0.0
2017-Jul-13 19:55N 29°42' W 095°03'0 0.0
2017-Jul-13 19:22N 29°42' W 095°03'0 0.0
2017-Jul-13 18:49N 29°42' W 095°03'0 0.0
2017-Jul-13 17:34N 29°42' W 095°03'0 0.0
2017-Jul-13 17:28N 29°42' W 095°03'0 0.0
2017-Jul-13 16:52N 29°42' W 095°03'0 0.0
2017-Jul-13 15:25N 29°42' W 095°03'0 0.0
2017-Jul-13 14:49N 29°42' W 095°03'0 0.0
2017-Jul-13 14:22N 29°42' W 095°03'0 0.0
2017-Jul-13 13:55N 29°42' W 095°03'0 0.0
2017-Jul-13 13:28N 29°42' W 095°03'0 0.0
2017-Jul-13 12:58N 29°42' W 095°03'0 0.1
2017-Jul-13 12:28N 29°42' W 095°03'0 0.6
2017-Jul-13 11:58N 29°42' W 095°02'1 2.6
2017-Jul-13 11:30N 29°42' W 095°01'1 2.7
2017-Jul-13 11:00N 29°42' W 094°60'1 1.2
2017-Jul-13 10:28N 29°41' W 094°59'2 4.3
2017-Jul-13 10:00N 29°40' W 094°58'3 6.0
2017-Jul-13 09:31N 29°37' W 094°57'3 6.6
2017-Jul-13 09:00N 29°34' W 094°55'3 6.6
2017-Jul-13 08:30N 29°31' W 094°53'79 4.3
2017-Jul-12 14:00N 30°04' W 093°29'3 5.3
2017-Jul-12 13:30N 30°04' W 093°26'3 5.3
2017-Jul-12 13:01N 30°04' W 093°23'2 4.2
2017-Jul-12 12:30N 30°04' W 093°21'2 3.8
2017-Jul-12 12:00N 30°05' W 093°20'2 3.9
2017-Jul-12 11:30N 30°07' W 093°20'1 1.7
2017-Jul-12 11:00N 30°08' W 093°20'0 0.2
2017-Jul-12 10:29N 30°08' W 093°19'0 0.2
2017-Jul-12 09:59N 30°08' W 093°19'0 0.0
2017-Jul-12 09:29N 30°08' W 093°19'0 0.0
2017-Jul-12 08:59N 30°08' W 093°19'0 0.0
2017-Jul-12 08:29N 30°08' W 093°19'0 0.0
2017-Jul-12 07:59N 30°08' W 093°19'0 0.0
2017-Jul-12 07:29N 30°08' W 093°19'0 0.0
2017-Jul-12 06:59N 30°08' W 093°19'0 0.0
2017-Jul-12 06:29N 30°08' W 093°19'0 0.0
2017-Jul-12 05:59N 30°08' W 093°19'0 0.0
2017-Jul-12 05:29N 30°08' W 093°19'0 0.0
2017-Jul-12 04:59N 30°08' W 093°19'0 0.0
2017-Jul-12 04:29N 30°08' W 093°19'0 0.0
2017-Jul-12 03:59N 30°08' W 093°19'0 0.0
2017-Jul-12 03:29N 30°08' W 093°19'0 0.0
2017-Jul-12 02:59N 30°08' W 093°19'0 0.0
2017-Jul-12 02:29N 30°08' W 093°19'0 0.0
2017-Jul-12 01:59N 30°08' W 093°19'0 0.0
2017-Jul-12 01:29N 30°08' W 093°19'0 0.0
2017-Jul-12 00:59N 30°08' W 093°19'0 0.0
2017-Jul-12 00:26N 30°08' W 093°19'0 0.0
2017-Jul-11 23:59N 30°08' W 093°19'0 0.0
2017-Jul-11 23:26N 30°08' W 093°19'0 0.0
2017-Jul-11 22:59N 30°08' W 093°19'0 0.0
2017-Jul-11 22:29N 30°08' W 093°19'0 0.0
2017-Jul-11 21:59N 30°08' W 093°19'0 0.0
2017-Jul-11 21:29N 30°08' W 093°19'0 0.0
2017-Jul-11 20:59N 30°08' W 093°19'0 0.0
2017-Jul-11 20:29N 30°08' W 093°19'0 0.0
2017-Jul-11 19:59N 30°08' W 093°19'0 0.0
2017-Jul-11 19:29N 30°08' W 093°19'0 0.0
2017-Jul-11 18:59N 30°08' W 093°19'0 0.0
2017-Jul-11 18:29N 30°08' W 093°19'0 0.0
2017-Jul-11 17:59N 30°08' W 093°19'0 0.0
2017-Jul-11 17:29N 30°08' W 093°19'0 0.0
2017-Jul-11 16:59N 30°08' W 093°19'0 0.0
2017-Jul-11 16:29N 30°08' W 093°19'0 0.0
2017-Jul-11 15:59N 30°08' W 093°19'0 0.0
2017-Jul-11 15:29N 30°08' W 093°19'0 0.0
2017-Jul-11 14:59N 30°08' W 093°19'0 0.0
2017-Jul-11 14:26N 30°08' W 093°19'0 0.0
2017-Jul-11 13:59N 30°08' W 093°19'0 0.0
2017-Jul-11 13:29N 30°08' W 093°19'0 0.0
2017-Jul-11 12:59N 30°08' W 093°19'0 0.0
2017-Jul-11 12:29N 30°08' W 093°19'0 0.0
2017-Jul-11 11:59N 30°08' W 093°19'0 0.0
2017-Jul-11 11:29N 30°08' W 093°19'0 0.0
2017-Jul-11 10:59N 30°08' W 093°19'0 0.0
2017-Jul-11 10:23N 30°08' W 093°19'0 0.0
2017-Jul-11 09:59N 30°08' W 093°19'0 0.0
2017-Jul-11 09:29N 30°08' W 093°19'0 0.0
2017-Jul-11 08:59N 30°08' W 093°19'0 0.0
2017-Jul-11 08:29N 30°08' W 093°19'0 0.0
2017-Jul-11 07:59N 30°08' W 093°19'0 0.0
2017-Jul-11 07:29N 30°08' W 093°19'0 0.0
2017-Jul-11 06:59N 30°08' W 093°19'0 0.0
2017-Jul-11 06:29N 30°08' W 093°19'0 0.0
2017-Jul-11 05:59N 30°08' W 093°19'0 0.0
2017-Jul-11 05:29N 30°08' W 093°19'0 0.0
2017-Jul-11 04:59N 30°08' W 093°19'0 0.0
2017-Jul-11 04:29N 30°08' W 093°19'0 0.0
2017-Jul-11 03:59N 30°08' W 093°19'0 0.0
2017-Jul-11 03:29N 30°08' W 093°19'0 0.0
2017-Jul-11 02:59N 30°08' W 093°19'1 1.5
2017-Jul-11 02:30N 30°08' W 093°20'2 4.4
2017-Jul-11 02:00N 30°05' W 093°20'2 4.9
2017-Jul-11 01:30N 30°04' W 093°21'3 6.0
2017-Jul-11 01:00N 30°04' W 093°25'3 6.2
2017-Jul-11 00:30N 30°04' W 093°28'  
Track history (hours):
 
Tides and Currents Weather Stations Pressure Air Temp Water Temp Dewpoint Dewpoint Depression Visibility Wind Speed Wind Dir Waves Ship Positions

Boo Sonier

Owner: LeBeouf Bros. Towing, LLC, Houma, LA. More information available from US FCC via Universal Licensing System and Coast Guard Vessel Documentation Center.

Last reported at 2017-Jul-20 19:49 UTC. Time now 2017-Jul-21 00:53 UTC.
Position N 29°46' W 095°05'.

Length 21 m.

Type: Tug. MMSI: 367524420.

Date/timePositionNaut miles runAvg speedWind from/ knotsBaromVisibWave heightAir tempDewpointWater temp
2017-Jul-20 19:49N 29°46' W 095°05'1 0.1
2017-Jul-20 12:13N 29°47' W 095°05'0 0.0
2017-Jul-20 10:55N 29°47' W 095°05'0 0.0
2017-Jul-20 10:19N 29°47' W 095°05'0 0.0
2017-Jul-20 09:52N 29°47' W 095°05'0 0.0
2017-Jul-20 09:25N 29°47' W 095°05'0 0.0
2017-Jul-20 08:58N 29°47' W 095°05'0 0.0
2017-Jul-20 08:13N 29°47' W 095°05'0 0.0
2017-Jul-20 07:58N 29°47' W 095°05'0 0.0
2017-Jul-20 07:25N 29°47' W 095°05'0 0.0
2017-Jul-20 06:07N 29°47' W 095°05'0 0.0
2017-Jul-20 05:49N 29°47' W 095°05'0 0.0
2017-Jul-19 08:17N 29°47' W 095°05'0 0.0
2017-Jul-19 07:53N 29°47' W 095°05'0 0.0
2017-Jul-19 07:23N 29°47' W 095°05'0 0.0
2017-Jul-19 06:59N 29°47' W 095°05'0 0.0
2017-Jul-19 06:05N 29°47' W 095°05'0 0.0
2017-Jul-19 05:47N 29°47' W 095°05'0 0.0
2017-Jul-19 05:23N 29°47' W 095°05'0 0.0
2017-Jul-19 04:59N 29°47' W 095°05'0 0.0
2017-Jul-19 04:26N 29°47' W 095°05'0 0.0
2017-Jul-19 03:50N 29°47' W 095°05'0 0.0
2017-Jul-19 03:26N 29°47' W 095°05'0 0.0
2017-Jul-19 02:23N 29°47' W 095°05'0 0.0
2017-Jul-19 00:35N 29°47' W 095°05'0 0.0
2017-Jul-19 00:05N 29°47' W 095°05'0 0.0
2017-Jul-18 16:50N 29°47' W 095°05'0 0.0
2017-Jul-18 08:05N 29°47' W 095°05'0 0.0
2017-Jul-18 07:50N 29°47' W 095°05'0 0.0
2017-Jul-18 07:29N 29°47' W 095°05'0 0.0
2017-Jul-18 05:02N 29°47' W 095°05'0 0.0
2017-Jul-18 03:25N 29°47' W 095°05'0 0.0
2017-Jul-18 01:28N 29°47' W 095°05'1 0.1
2017-Jul-17 18:44N 29°46' W 095°05'1 0.6
2017-Jul-17 16:51N 29°46' W 095°06'1 1.7
2017-Jul-17 16:29N 29°46' W 095°05'1 0.0
2017-Jul-16 10:47N 29°46' W 095°05'2 4.5
2017-Jul-16 10:27N 29°45' W 095°06'2 5.2
2017-Jul-16 10:00N 29°44' W 095°09'2 4.8
2017-Jul-16 09:29N 29°45' W 095°11'1 0.1
2017-Jul-16 00:38N 29°44' W 095°12'0 0.0
2017-Jul-16 00:22N 29°44' W 095°12'0 0.0
2017-Jul-15 23:56N 29°44' W 095°12'0 0.1
2017-Jul-15 22:16N 29°44' W 095°12'0 0.6
2017-Jul-15 21:59N 29°44' W 095°12'0 0.0
2017-Jul-15 21:23N 29°44' W 095°12'0 0.0
2017-Jul-15 20:47N 29°44' W 095°12'0 0.0
2017-Jul-15 20:17N 29°44' W 095°12'0 0.0
2017-Jul-15 17:29N 29°44' W 095°12'0 0.0
2017-Jul-15 14:54N 29°44' W 095°12'0 0.0
2017-Jul-15 12:54N 29°44' W 095°12'0 0.1
2017-Jul-15 12:24N 29°44' W 095°12'0 0.0
2017-Jul-15 11:05N 29°44' W 095°12'0 0.0
2017-Jul-15 11:00N 29°44' W 095°12'0 0.0
2017-Jul-14 17:51N 29°44' W 095°12'2 5.5
2017-Jul-14 17:28N 29°45' W 095°10'3 5.2
2017-Jul-14 16:58N 29°44' W 095°07'2 5.3
2017-Jul-14 16:30N 29°46' W 095°05'3 5.6
2017-Jul-14 16:00N 29°44' W 095°02'2 3.5
2017-Jul-14 15:30N 29°42' W 095°02'1 2.0
2017-Jul-14 14:57N 29°42' W 095°03'0 0.1
2017-Jul-14 13:28N 29°42' W 095°03'0 0.0
2017-Jul-14 10:52N 29°42' W 095°03'0 0.0
2017-Jul-14 10:28N 29°42' W 095°03'0 0.0
2017-Jul-14 09:58N 29°42' W 095°03'0 0.0
2017-Jul-14 09:13N 29°42' W 095°03'0 0.0
2017-Jul-14 08:10N 29°42' W 095°03'0 0.0
2017-Jul-14 07:52N 29°42' W 095°03'0 0.0
2017-Jul-14 07:28N 29°42' W 095°03'0 0.0
2017-Jul-14 06:49N 29°42' W 095°03'0 0.0
2017-Jul-14 06:07N 29°42' W 095°03'0 0.0
2017-Jul-14 05:49N 29°42' W 095°03'0 0.0
2017-Jul-14 05:25N 29°42' W 095°03'0 0.0
2017-Jul-14 03:55N 29°42' W 095°03'0 0.0
2017-Jul-14 02:25N 29°42' W 095°03'0 0.0
2017-Jul-14 01:52N 29°42' W 095°03'0 0.0
2017-Jul-14 01:28N 29°42' W 095°03'0 0.0
2017-Jul-14 00:55N 29°42' W 095°03'0 0.0
2017-Jul-14 00:22N 29°42' W 095°03'0 0.0
2017-Jul-13 23:49N 29°42' W 095°03'0 0.0
2017-Jul-13 22:52N 29°42' W 095°03'0 0.0
2017-Jul-13 22:28N 29°42' W 095°03'0 0.0
2017-Jul-13 21:58N 29°42' W 095°03'0 0.0
2017-Jul-13 21:25N 29°42' W 095°03'0 0.0
2017-Jul-13 20:04N 29°42' W 095°03'0 0.0
2017-Jul-13 19:55N 29°42' W 095°03'0 0.0
2017-Jul-13 19:22N 29°42' W 095°03'0 0.0
2017-Jul-13 18:49N 29°42' W 095°03'0 0.0
2017-Jul-13 17:34N 29°42' W 095°03'0 0.0
2017-Jul-13 17:28N 29°42' W 095°03'0 0.0
2017-Jul-13 16:52N 29°42' W 095°03'0 0.0
2017-Jul-13 15:25N 29°42' W 095°03'0 0.0
2017-Jul-13 14:49N 29°42' W 095°03'0 0.0
2017-Jul-13 14:22N 29°42' W 095°03'0 0.0
2017-Jul-13 13:55N 29°42' W 095°03'0 0.0
2017-Jul-13 13:28N 29°42' W 095°03'0 0.0
2017-Jul-13 12:58N 29°42' W 095°03'0 0.1
2017-Jul-13 12:28N 29°42' W 095°03'0 0.6
2017-Jul-13 11:58N 29°42' W 095°02'1 2.6
2017-Jul-13 11:30N 29°42' W 095°01'1 2.7
2017-Jul-13 11:00N 29°42' W 094°60'1 1.2
2017-Jul-13 10:28N 29°41' W 094°59'2 4.3
2017-Jul-13 10:00N 29°40' W 094°58'3 6.0
2017-Jul-13 09:31N 29°37' W 094°57'3 6.6
2017-Jul-13 09:00N 29°34' W 094°55'3 6.6
2017-Jul-13 08:30N 29°31' W 094°53'79 4.3
2017-Jul-12 14:00N 30°04' W 093°29'3 5.3
2017-Jul-12 13:30N 30°04' W 093°26'3 5.3
2017-Jul-12 13:01N 30°04' W 093°23'2 4.2
2017-Jul-12 12:30N 30°04' W 093°21'2 3.8
2017-Jul-12 12:00N 30°05' W 093°20'2 3.9
2017-Jul-12 11:30N 30°07' W 093°20'1 1.7
2017-Jul-12 11:00N 30°08' W 093°20'0 0.2
2017-Jul-12 10:29N 30°08' W 093°19'0 0.2
2017-Jul-12 09:59N 30°08' W 093°19'0 0.0
2017-Jul-12 09:29N 30°08' W 093°19'0 0.0
2017-Jul-12 08:59N 30°08' W 093°19'0 0.0
2017-Jul-12 08:29N 30°08' W 093°19'0 0.0
2017-Jul-12 07:59N 30°08' W 093°19'0 0.0
2017-Jul-12 07:29N 30°08' W 093°19'0 0.0
2017-Jul-12 06:59N 30°08' W 093°19'0 0.0
2017-Jul-12 06:29N 30°08' W 093°19'0 0.0
2017-Jul-12 05:59N 30°08' W 093°19'0 0.0
2017-Jul-12 05:29N 30°08' W 093°19'0 0.0
2017-Jul-12 04:59N 30°08' W 093°19'0 0.0
2017-Jul-12 04:29N 30°08' W 093°19'0 0.0
2017-Jul-12 03:59N 30°08' W 093°19'0 0.0
2017-Jul-12 03:29N 30°08' W 093°19'0 0.0
2017-Jul-12 02:59N 30°08' W 093°19'0 0.0
2017-Jul-12 02:29N 30°08' W 093°19'0 0.0
2017-Jul-12 01:59N 30°08' W 093°19'0 0.0
2017-Jul-12 01:29N 30°08' W 093°19'0 0.0
2017-Jul-12 00:59N 30°08' W 093°19'0 0.0
2017-Jul-12 00:26N 30°08' W 093°19'0 0.0
2017-Jul-11 23:59N 30°08' W 093°19'0 0.0
2017-Jul-11 23:26N 30°08' W 093°19'0 0.0
2017-Jul-11 22:59N 30°08' W 093°19'0 0.0
2017-Jul-11 22:29N 30°08' W 093°19'0 0.0
2017-Jul-11 21:59N 30°08' W 093°19'0 0.0
2017-Jul-11 21:29N 30°08' W 093°19'0 0.0
2017-Jul-11 20:59N 30°08' W 093°19'0 0.0
2017-Jul-11 20:29N 30°08' W 093°19'0 0.0
2017-Jul-11 19:59N 30°08' W 093°19'0 0.0
2017-Jul-11 19:29N 30°08' W 093°19'0 0.0
2017-Jul-11 18:59N 30°08' W 093°19'0 0.0
2017-Jul-11 18:29N 30°08' W 093°19'0 0.0
2017-Jul-11 17:59N 30°08' W 093°19'0 0.0
2017-Jul-11 17:29N 30°08' W 093°19'0 0.0
2017-Jul-11 16:59N 30°08' W 093°19'0 0.0
2017-Jul-11 16:29N 30°08' W 093°19'0 0.0
2017-Jul-11 15:59N 30°08' W 093°19'0 0.0
2017-Jul-11 15:29N 30°08' W 093°19'0 0.0
2017-Jul-11 14:59N 30°08' W 093°19'0 0.0
2017-Jul-11 14:26N 30°08' W 093°19'0 0.0
2017-Jul-11 13:59N 30°08' W 093°19'0 0.0
2017-Jul-11 13:29N 30°08' W 093°19'0 0.0
2017-Jul-11 12:59N 30°08' W 093°19'0 0.0
2017-Jul-11 12:29N 30°08' W 093°19'0 0.0
2017-Jul-11 11:59N 30°08' W 093°19'0 0.0
2017-Jul-11 11:29N 30°08' W 093°19'0 0.0
2017-Jul-11 10:59N 30°08' W 093°19'0 0.0
2017-Jul-11 10:23N 30°08' W 093°19'0 0.0
2017-Jul-11 09:59N 30°08' W 093°19'0 0.0
2017-Jul-11 09:29N 30°08' W 093°19'0 0.0
2017-Jul-11 08:59N 30°08' W 093°19'0 0.0
2017-Jul-11 08:29N 30°08' W 093°19'0 0.0
2017-Jul-11 07:59N 30°08' W 093°19'0 0.0
2017-Jul-11 07:29N 30°08' W 093°19'0 0.0
2017-Jul-11 06:59N 30°08' W 093°19'0 0.0
2017-Jul-11 06:29N 30°08' W 093°19'0 0.0
2017-Jul-11 05:59N 30°08' W 093°19'0 0.0
2017-Jul-11 05:29N 30°08' W 093°19'0 0.0
2017-Jul-11 04:59N 30°08' W 093°19'0 0.0
2017-Jul-11 04:29N 30°08' W 093°19'0 0.0
2017-Jul-11 03:59N 30°08' W 093°19'0 0.0
2017-Jul-11 03:29N 30°08' W 093°19'0 0.0
2017-Jul-11 02:59N 30°08' W 093°19'1 1.5
2017-Jul-11 02:30N 30°08' W 093°20'2 4.4
2017-Jul-11 02:00N 30°05' W 093°20'2 4.9
2017-Jul-11 01:30N 30°04' W 093°21'3 6.0
2017-Jul-11 01:00N 30°04' W 093°25'3 6.2
2017-Jul-11 00:30N 30°04' W 093°28'  

Dump ship's entire track history